Monday, October 16, 2017, 6:00 PM EDT
Back to Local

KUKT, Quakertown, Quakertown Airport

Location: Quakertown, PA, United States Lat: 40.435
Local Time: 6:00 PM EDT (22:00 GMT) Lon: -75.382
Time Zone: US/Eastern Elev: 524 ft

Show me the last for .
Show Coded

Time T Td Feel RH Dir Speed Gust Alt SLP Vis Weather Sky Remarks
2017-10-16 17:35 55 36 - 47 340° 3 - 30.12 - 10 CLR None
2017-10-16 17:15 55 36 - 47 350° 6 17 30.11 - 10 CLR None
2017-10-16 16:55 57 36 - 44 330° 12 16 30.11 - 10 CLR None
2017-10-16 16:35 57 37 - 47 360° 8 20 30.10 - 10 CLR None
2017-10-16 16:15 55 37 - 50 350° 10 16 30.09 - 10 CLR None
2017-10-16 15:55 55 37 - 50 360° 9 16 30.09 - 10 CLR None
2017-10-16 15:35 57 37 - 47 340° 9 - 30.09 - 10 CLR None
2017-10-16 15:15 55 39 - 54 350° 7 17 30.09 - 10 FEW041 None
2017-10-16 14:55 57 39 - 50 360° 13 21 30.08 - 10 CLR None
2017-10-16 14:35 55 41 - 58 350° 9 17 30.07 - 10 FEW037 None
2017-10-16 14:15 54 39 - 58 360° 9 - 30.07 - 10 CLR None
2017-10-16 13:55 54 41 - 62 340° 9 - 30.07 - 10 CLR None
2017-10-16 13:35 54 39 - 58 340° 12 18 30.08 - 10 FEW032 None
2017-10-16 13:15 54 39 - 58 360° 13 - 30.08 - 10 FEW034 None
2017-10-16 12:55 54 39 - 58 320° 9 - 30.08 - 10 SCT034 None
2017-10-16 12:35 54 41 - 62 360° 10 - 30.08 - 10 CLR None
2017-10-16 12:15 54 39 - 58 360° 8 - 30.08 - 10 CLR None
2017-10-16 11:55 52 39 - 62 340° 10 16 30.07 - 10 FEW032 None
2017-10-16 11:35 54 41 - 62 330° 12 16 30.07 - 10 SCT032 None
2017-10-16 11:15 54 41 - 62 360° 9 - 30.07 - 10 BKN032 None
2017-10-16 10:55 54 41 - 62 360° 7 - 30.08 - 10 BKN030 None
2017-10-16 10:35 54 41 - 62 330° 8 21 30.07 - 10 BKN030 None
2017-10-16 10:15 54 41 - 62 360° 10 17 30.06 - 10 BKN030 None
2017-10-16 09:55 54 45 - 71 360° 6 - 30.06 - 10 FEW028 BKN034 None
2017-10-16 09:35 54 45 - 71 360° 12 - 30.05 - 10 FEW034 None
2017-10-16 09:15 54 45 - 71 350° 12 17 30.03 - 10 CLR None
2017-10-16 08:55 54 46 - 76 350° 10 18 30.01 - 10 CLR None
2017-10-16 08:35 55 46 - 71 340° 9 - 30.02 - 10 CLR None
2017-10-16 08:15 55 46 - 71 350° 6 - 30.00 - 10 CLR None
2017-10-16 07:55 55 46 - 71 340° 8 - 29.99 - 10 FEW031 None
2017-10-16 07:35 57 48 - 71 10° 6 - 29.98 - 10 FEW031 None
2017-10-16 07:15 57 50 - 76 350° 8 - 29.95 - 10 CLR None
2017-10-16 06:55 57 50 - 76 360° 8 - 29.95 - 10 FEW045 None
2017-10-16 06:35 57 50 - 76 340° 6 - 29.96 - 10 SCT043 None
2017-10-16 06:15 59 54 - 82 310° 7 - 29.96 - 10 FEW038 None
2017-10-16 05:55 59 54 - 82 330° 6 - 29.94 - 10 CLR None
2017-10-16 05:35 59 57 - 93 310° 5 - 29.93 - 10 CLR None
2017-10-16 05:15 59 57 - 93 310° 7 - 29.92 - 10 FEW120 None
2017-10-16 04:55 59 57 - 93 300° 3 - 29.91 - 10 SCT110 None
2017-10-16 04:35 59 57 - 93 310° 3 - 29.90 - 10 BKN110 None
2017-10-16 04:15 59 59 - 100 - Calm - 29.89 - 10 BKN110 None
2017-10-16 03:55 59 59 - 100 - Calm - 29.90 - 10 FEW046 SCT080 BKN110 1-hr Precip Total: 0.02"
2017-10-16 03:35 59 59 - 100 320° 3 - 29.89 - 9 FEW034 BKN049 OVC070 1-hr Precip Total: 0.01"
2017-10-16 03:15 59 59 - 100 320° 3 - 29.90 - 10 FEW027 BKN047 OVC070 None
2017-10-16 02:55 61 57 - 87 290° 6 - 29.91 - 6 SCT025 BKN038 OVC060 1-hr Precip Total: 0.02"
2017-10-16 02:35 63 59 - 88 320° 5 - 29.91 - 10 FEW034 FEW043 OVC049 None
2017-10-16 02:15 64 61 - 88 280° 5 - 29.90 - 10 OVC049 None
2017-10-16 01:55 64 61 - 88 280° 5 - 29.90 - 10 OVC045 1-hr Precip Total: 0.02"
2017-10-16 01:35 64 63 - 93 280° 6 - 29.89 - 10 FEW010 SCT018 OVC041 1-hr Precip Total: 0.02"
2017-10-16 01:15 64 64 - 100 310° 3 - 29.88 - 3 FEW006 BKN010 OVC026 1-hr Precip Total: 0.02"
2017-10-16 00:55 66 64 - 93 310° 6 - 29.87 - 4 FEW010 BKN025 OVC044 1-hr Precip Total: 0.03"
2017-10-16 00:35 66 64 - 93 290° 5 - 29.86 - 10 FEW029 BKN044 OVC050 1-hr Precip Total: 0.02"
2017-10-16 00:15 66 66 - 100 250° 3 - 29.86 - 3 SCT017 BKN027 OVC046 1-hr Precip Total: 0.02"
2017-10-15 23:55 68 66 - 93 260° 6 - 29.85 - 8 BKN023 BKN029 OVC070 None
2017-10-15 23:35 66 66 - 100 260° 9 - 29.84 - 10 SCT070 BKN075 OVC090 None
2017-10-15 23:15 66 66 - 100 230° 7 - 29.83 - 10 BKN090 None
2017-10-15 22:55 66 66 - 100 220° 9 - 29.83 - 10 FEW090 None
2017-10-15 22:35 66 64 - 93 220° 9 - 29.83 - 10 FEW075 None
2017-10-15 22:15 66 64 - 93 220° 7 - 29.84 - 10 CLR None
2017-10-15 21:55 66 64 - 93 220° 5 - 29.84 - 10 FEW014 None
2017-10-15 21:35 66 64 - 93 180° 6 - 29.84 - 10 BKN012 None
2017-10-15 21:15 66 64 - 93 180° 3 - 29.85 - 10 OVC014 None
2017-10-15 20:55 66 64 - 93 200° 3 - 29.85 - 10 OVC014 None
2017-10-15 20:35 66 64 - 93 210° 5 - 29.85 - 10 OVC014 None
2017-10-15 20:15 66 64 - 93 - Calm - 29.86 - 10 OVC014 None
2017-10-15 19:55 66 64 - 93 190° 7 - 29.85 - 10 OVC014 None
2017-10-15 19:35 66 64 - 93 210° 6 - 29.87 - 10 OVC014 None
2017-10-15 19:15 66 64 - 93 210° 8 - 29.87 - 10 OVC016 None
2017-10-15 18:55 66 64 - 93 200° 6 - 29.87 - 10 OVC016 None
2017-10-15 18:35 66 64 - 93 210° 6 - 29.87 - 10 OVC016 None
2017-10-15 18:15 66 63 - 88 200° 6 - 29.88 - 10 OVC016 None

Support USWX by starting your Amazon purchase here.